Terminal Aerodrome Forecast
Issued by NWS

Home | Current Version | Previous Version | Graphics & Text | Print | Product List | Glossary On
Versions: 1 2 3 4 5 6 7 8 9 10 11 12 13 14 15 16 17 18 19 20 21 22 23 24 25 26 27
000
FTUS43 KGRB 252106 AAB
TAFCWA
TAF AMD
KCWA 252106Z 2521/2618 10012G20KT 6SM -SHRA SCT035 OVC070
      TEMPO 2521/2523 3SM +TSRA BKN025 OVC040CB
     FM260400 15005KT 3SM BR BKN005 BKN010
     FM261500 22008KT P6SM BKN018=

USA.gov is the U.S. government's official web portal to all federal, state and local government web resources and services.